Time;durP1;ratioP1;P1;durP2;ratioP2;P2;SDS_P1;SDS_P2;PMS_P1;PMS_P2;Temp;Humidity;BMP_temperature;BMP_pressure;BME280_temperature;BME280_humidity;BME280_pressure;Samples;Min_cycle;Max_cycle;Signal;HPM_P1;HPM_P2
2022/08/05 00:02:23;;;;;;;6.85;3.80;;;26.30;51.90;;;;;;4944764;28;20052;-43
2022/08/05 00:04:50;;;;;;;8.68;4.32;;;26.20;51.90;;;;;;4945267;28;20062;-43
2022/08/05 00:07:18;;;;;;;7.55;3.40;;;26.20;51.90;;;;;;4943823;28;20051;-44
2022/08/05 00:09:45;;;;;;;7.15;3.17;;;26.20;52.00;;;;;;4943197;28;20503;-44
2022/08/05 00:12:12;;;;;;;8.68;3.63;;;26.10;52.20;;;;;;4943565;28;20070;-44
2022/08/05 00:14:41;;;;;;;4.70;3.53;;;26.10;52.30;;;;;;4944098;28;20506;-43
2022/08/05 00:17:08;;;;;;;5.40;3.30;;;26.10;52.60;;;;;;4945659;28;20055;-47
2022/08/05 00:19:35;;;;;;;7.93;3.60;;;26.00;52.40;;;;;;4945348;28;20408;-48
2022/08/05 00:22:03;;;;;;;6.53;3.40;;;26.10;52.70;;;;;;4943921;28;20055;-46
2022/08/05 00:24:30;;;;;;;6.60;3.60;;;26.00;52.70;;;;;;4944246;28;20059;-45
2022/08/05 00:26:57;;;;;;;7.85;4.05;;;26.00;52.90;;;;;;4944494;28;20067;-43
2022/08/05 00:29:25;;;;;;;5.30;3.53;;;26.00;53.00;;;;;;4943894;28;20062;-46
2022/08/05 00:31:54;;;;;;;7.53;3.22;;;25.90;53.00;;;;;;4941533;28;20058;-45
2022/08/05 00:34:21;;;;;;;5.75;3.70;;;25.90;53.20;;;;;;4945032;28;20059;-44
2022/08/05 00:36:48;;;;;;;5.82;3.58;;;25.90;53.20;;;;;;4946261;28;20062;-44
2022/08/05 00:39:15;;;;;;;7.90;3.88;;;25.90;53.30;;;;;;4946063;28;20070;-45
2022/08/05 00:41:46;;;;;;;7.68;3.88;;;25.80;53.30;;;;;;4942592;28;20066;-48
2022/08/05 00:44:14;;;;;;;6.90;3.55;;;25.90;53.50;;;;;;4943897;28;20082;-46
2022/08/05 00:46:41;;;;;;;6.07;3.65;;;25.80;53.40;;;;;;4944951;28;20063;-46
2022/08/05 00:49:10;;;;;;;5.55;3.28;;;25.80;53.40;;;;;;4944027;28;20058;-45
2022/08/05 00:51:37;;;;;;;8.10;3.33;;;25.80;53.50;;;;;;4942147;28;20515;-43
2022/08/05 00:54:04;;;;;;;5.70;2.83;;;25.70;53.50;;;;;;4944658;28;20051;-44
2022/08/05 00:56:31;;;;;;;5.85;3.30;;;25.70;53.50;;;;;;4945365;28;20077;-43
2022/08/05 00:58:58;;;;;;;7.13;3.58;;;25.70;53.70;;;;;;4944005;28;20059;-44
2022/08/05 01:01:26;;;;;;;6.95;3.80;;;25.70;53.70;;;;;;4943216;28;20066;-44
2022/08/05 01:03:53;;;;;;;7.55;3.90;;;25.70;53.70;;;;;;4944578;28;20051;-44
2022/08/05 01:06:21;;;;;;;10.57;3.67;;;25.70;53.90;;;;;;4945580;28;20066;-44
2022/08/05 01:08:48;;;;;;;9.05;4.57;;;25.60;53.80;;;;;;4943782;28;20066;-43
2022/08/05 01:11:20;;;;;;;7.63;4.05;;;25.60;54.00;;;;;;4939529;28;20054;-44
2022/08/05 01:13:55;;;;;;;8.30;4.72;;;25.60;54.60;;;;;;4941886;28;20059;-45
2022/08/05 01:16:30;;;;;;;5.25;3.80;;;25.50;54.10;;;;;;4943690;28;20070;-45
2022/08/05 01:19:06;;;;;;;6.20;4.13;;;25.50;54.20;;;;;;4944676;28;20057;-44
2022/08/05 01:21:57;;;;;;;8.80;4.38;;;25.50;54.20;;;;;;4942997;28;20625;-45
2022/08/05 01:24:50;;;;;;;7.03;4.15;;;25.50;54.50;;;;;;4943927;28;20147;-43
2022/08/05 01:27:34;;;;;;;7.97;4.38;;;25.50;54.40;;;;;;4944479;28;20539;-44
2022/08/05 01:30:04;;;;;;;13.33;5.30;;;25.50;54.60;;;;;;4940771;28;20055;-49
2022/08/05 01:32:35;;;;;;;11.13;5.60;;;25.40;54.80;;;;;;4941954;28;20047;-44
2022/08/05 01:35:07;;;;;;;10.45;5.85;;;25.30;54.80;;;;;;4944117;28;20055;-47
2022/08/05 01:37:40;;;;;;;13.95;5.50;;;25.20;54.80;;;;;;4944689;28;20059;-44
2022/08/05 01:40:10;;;;;;;11.15;6.15;;;25.10;55.10;;;;;;4938577;28;20597;-45
2022/08/05 01:42:39;;;;;;;11.68;6.25;;;25.00;55.30;;;;;;4943782;28;20059;-43
2022/08/05 01:45:09;;;;;;;8.55;5.13;;;25.00;55.60;;;;;;4942659;28;20057;-43
2022/08/05 01:47:39;;;;;;;10.52;5.20;;;24.90;55.60;;;;;;4944335;28;20066;-45
2022/08/05 01:50:10;;;;;;;8.88;4.53;;;24.80;55.70;;;;;;4943243;28;20059;-44
2022/08/05 01:52:41;;;;;;;11.38;4.53;;;24.80;55.90;;;;;;4942845;28;20058;-46
2022/08/05 01:55:11;;;;;;;8.43;4.28;;;24.70;55.80;;;;;;4943360;28;20417;-44
2022/08/05 01:57:40;;;;;;;6.47;4.15;;;24.70;56.00;;;;;;4943895;28;20078;-43
2022/08/05 02:00:11;;;;;;;10.05;5.78;;;24.80;56.20;;;;;;4944108;28;20426;-45
2022/08/05 02:02:43;;;;;;;7.22;4.60;;;24.70;56.40;;;;;;4948661;28;20059;-44
2022/08/05 02:05:13;;;;;;;11.27;5.97;;;24.70;56.50;;;;;;4949021;28;20408;-47
2022/08/05 02:07:41;;;;;;;9.60;5.43;;;24.70;56.40;;;;;;4948272;28;20491;-45
2022/08/05 02:10:10;;;;;;;10.13;5.00;;;24.70;56.40;;;;;;4945273;28;20606;-44
2022/08/05 02:12:44;;;;;;;11.45;5.55;;;24.70;57.10;;;;;;4945273;28;20058;-44
2022/08/05 02:15:21;;;;;;;15.38;7.80;;;24.60;57.00;;;;;;4946682;28;20055;-44
2022/08/05 02:17:51;;;;;;;11.85;7.38;;;24.60;57.10;;;;;;4946930;28;20570;-44
2022/08/05 02:20:22;;;;;;;13.13;6.82;;;24.50;57.40;;;;;;4946522;28;20047;-43
2022/08/05 02:22:56;;;;;;;14.05;7.20;;;24.40;57.40;;;;;;4947897;28;20055;-46
2022/08/05 02:25:27;;;;;;;9.93;6.55;;;24.40;58.10;;;;;;4947719;28;20047;-45
2022/08/05 02:27:58;;;;;;;14.85;6.93;;;24.40;58.10;;;;;;4945611;28;20070;-44
2022/08/05 02:30:35;;;;;;;17.20;7.28;;;24.30;58.10;;;;;;4943709;28;20423;-42
2022/08/05 02:33:04;;;;;;;11.98;5.68;;;24.30;58.20;;;;;;4945736;28;20495;-43
2022/08/05 02:35:33;;;;;;;14.85;5.78;;;24.30;58.20;;;;;;4943352;28;20051;-42
2022/08/05 02:38:02;;;;;;;18.80;5.80;;;24.30;58.40;;;;;;4941970;28;20055;-43
2022/08/05 02:40:31;;;;;;;8.68;5.10;;;24.30;58.40;;;;;;4946840;28;20062;-45
2022/08/05 02:42:59;;;;;;;10.05;5.75;;;24.30;58.30;;;;;;4944516;28;20063;-43
2022/08/05 02:45:29;;;;;;;8.90;4.80;;;24.30;58.40;;;;;;4945654;28;20065;-47
2022/08/05 02:47:59;;;;;;;8.07;4.70;;;24.20;57.90;;;;;;4947560;28;20507;-47
2022/08/05 02:50:27;;;;;;;14.10;4.55;;;24.20;57.50;;;;;;4946659;28;20058;-42
2022/08/05 02:52:55;;;;;;;10.55;4.75;;;24.20;57.30;;;;;;4942652;28;20054;-43
2022/08/05 02:55:22;;;;;;;10.95;4.75;;;24.10;57.00;;;;;;4946482;28;20139;-43
2022/08/05 02:57:50;;;;;;;10.60;4.40;;;24.10;56.90;;;;;;4945808;28;20062;-47
2022/08/05 03:00:19;;;;;;;7.57;4.18;;;24.10;56.70;;;;;;4944088;28;20058;-46
2022/08/05 03:02:48;;;;;;;11.98;5.20;;;24.00;56.70;;;;;;4947541;28;20058;-46
2022/08/05 03:05:16;;;;;;;9.27;4.07;;;23.90;56.50;;;;;;4946159;28;20066;-43
2022/08/05 03:07:44;;;;;;;7.82;3.90;;;23.90;56.50;;;;;;4947410;28;20055;-45
2022/08/05 03:10:15;;;;;;;6.38;3.42;;;23.80;56.40;;;;;;4945186;28;20495;-41
2022/08/05 03:12:42;;;;;;;6.88;3.85;;;23.80;56.50;;;;;;4945553;28;20066;-44
2022/08/05 03:15:10;;;;;;;6.63;3.78;;;23.70;56.50;;;;;;4946808;28;20055;-44
2022/08/05 03:17:37;;;;;;;6.55;3.50;;;23.70;56.50;;;;;;4946463;28;20055;-44
2022/08/05 03:20:07;;;;;;;7.78;3.80;;;23.70;56.60;;;;;;4945685;28;20051;-44
2022/08/05 03:22:34;;;;;;;8.10;3.70;;;23.70;56.60;;;;;;4944776;28;20051;-44
2022/08/05 03:25:02;;;;;;;10.82;5.03;;;23.70;56.60;;;;;;4944840;28;20054;-49
2022/08/05 03:27:31;;;;;;;7.07;3.80;;;23.70;56.70;;;;;;4944338;28;20066;-44
2022/08/05 03:29:58;;;;;;;10.98;4.57;;;23.70;56.70;;;;;;4945611;28;20067;-44
2022/08/05 03:32:26;;;;;;;7.90;3.97;;;23.70;56.90;;;;;;4945320;28;20065;-43
2022/08/05 03:34:53;;;;;;;8.32;3.90;;;23.60;56.70;;;;;;4945279;28;20051;-46
2022/08/05 03:37:22;;;;;;;12.02;5.10;;;23.60;56.80;;;;;;4946190;28;20055;-44
2022/08/05 03:39:57;;;;;;;7.13;4.00;;;23.60;57.00;;;;;;4922815;28;21553;-44
2022/08/05 03:42:24;;;;;;;8.02;3.95;;;23.60;57.10;;;;;;4943304;28;20062;-44
2022/08/05 03:44:51;;;;;;;9.38;4.55;;;23.50;57.10;;;;;;4956427;28;20042;-44
2022/08/05 03:47:18;;;;;;;10.98;4.47;;;23.50;57.20;;;;;;4963316;28;20422;-44
2022/08/05 03:49:45;;;;;;;6.88;3.90;;;23.50;57.20;;;;;;4959023;28;20046;-45
2022/08/05 03:52:22;;;;;;;11.77;4.97;;;23.50;57.30;;;;;;4964938;28;20055;-47
2022/08/05 03:54:57;;;;;;;12.93;4.78;;;23.50;57.40;;;;;;4965235;28;20055;-45
2022/08/05 03:57:28;;;;;;;9.60;4.10;;;23.40;57.50;;;;;;4963794;28;20059;-43
2022/08/05 04:00:00;;;;;;;9.82;4.57;;;23.40;57.30;;;;;;4963659;28;20483;-44
2022/08/05 04:02:30;;;;;;;7.88;4.40;;;23.40;57.40;;;;;;4962939;28;20066;-45
2022/08/05 04:04:59;;;;;;;9.30;4.50;;;23.40;57.50;;;;;;4965251;28;20057;-46
2022/08/05 04:07:27;;;;;;;9.05;4.30;;;23.40;57.50;;;;;;4963527;28;20054;-43
2022/08/05 04:09:57;;;;;;;9.57;4.22;;;23.40;57.50;;;;;;4964119;28;20058;-44
2022/08/05 04:12:24;;;;;;;5.63;4.20;;;23.40;57.60;;;;;;4964167;28;20062;-45
2022/08/05 04:14:52;;;;;;;8.48;4.13;;;23.40;57.60;;;;;;4964146;28;20050;-44
2022/08/05 04:17:19;;;;;;;7.78;4.40;;;23.40;57.70;;;;;;4955468;28;20059;-45
2022/08/05 04:19:47;;;;;;;8.77;4.03;;;23.40;57.80;;;;;;4961580;28;20054;-43
2022/08/05 04:22:15;;;;;;;9.30;4.20;;;23.40;57.80;;;;;;4963914;28;20081;-45
2022/08/05 04:24:44;;;;;;;9.85;4.30;;;23.40;57.80;;;;;;4962747;28;20483;-42
2022/08/05 04:27:13;;;;;;;9.35;4.25;;;23.40;57.90;;;;;;4962955;28;20065;-45
2022/08/05 04:29:41;;;;;;;7.38;4.20;;;23.40;57.90;;;;;;4958688;28;20055;-43
2022/08/05 04:32:09;;;;;;;7.57;4.05;;;23.40;58.00;;;;;;4959221;28;20425;-43
2022/08/05 04:34:36;;;;;;;8.57;4.50;;;23.40;58.00;;;;;;4960547;28;20506;-44
2022/08/05 04:37:04;;;;;;;6.90;4.25;;;23.40;58.00;;;;;;4964910;28;20058;-43
2022/08/05 04:39:33;;;;;;;9.40;4.57;;;23.40;58.00;;;;;;4962755;28;20051;-45
2022/08/05 04:42:00;;;;;;;39.38;20.92;;;23.40;58.00;;;;;;4962306;28;20058;-47
2022/08/05 04:44:28;;;;;;;21.75;12.63;;;23.40;58.00;;;;;;4963227;28;20406;-47
2022/08/05 04:46:56;;;;;;;12.07;7.53;;;23.40;58.00;;;;;;4963453;28;20410;-43
2022/08/05 04:49:23;;;;;;;10.68;5.13;;;23.40;57.90;;;;;;4956253;28;20055;-45
2022/08/05 04:51:50;;;;;;;8.73;4.55;;;23.40;58.00;;;;;;4962200;28;20054;-43
2022/08/05 04:54:18;;;;;;;7.22;4.88;;;23.40;58.20;;;;;;4963428;28;20058;-44
2022/08/05 04:56:46;;;;;;;10.30;5.07;;;23.40;58.10;;;;;;4961645;28;20053;-43
2022/08/05 04:59:14;;;;;;;9.65;5.03;;;23.40;58.20;;;;;;4960691;28;20050;-44
2022/08/05 05:01:44;;;;;;;6.95;4.60;;;23.30;58.20;;;;;;4961172;28;20119;-45
2022/08/05 05:04:11;;;;;;;8.13;5.93;;;23.30;58.40;;;;;;4962876;28;20062;-45
2022/08/05 05:06:38;;;;;;;8.82;6.43;;;23.30;58.60;;;;;;4963958;28;20063;-43
2022/08/05 05:09:06;;;;;;;9.25;5.32;;;23.30;58.60;;;;;;4961002;28;20046;-44
2022/08/05 05:11:33;;;;;;;8.00;5.43;;;23.30;58.70;;;;;;4957860;28;20058;-47
2022/08/05 05:14:02;;;;;;;12.43;5.97;;;23.30;58.80;;;;;;4962260;28;20055;-47
2022/08/05 05:16:29;;;;;;;7.68;4.68;;;23.30;58.80;;;;;;4960206;28;20050;-47
2022/08/05 05:18:58;;;;;;;11.35;6.82;;;23.30;58.90;;;;;;4962839;28;20055;-44
2022/08/05 05:21:25;;;;;;;15.48;7.35;;;23.30;59.10;;;;;;4961811;28;20065;-43
2022/08/05 05:23:52;;;;;;;12.32;6.07;;;23.30;59.30;;;;;;4957939;28;20063;-45
2022/08/05 05:26:20;;;;;;;9.15;6.28;;;23.30;59.10;;;;;;4959885;28;20055;-44
2022/08/05 05:28:47;;;;;;;12.23;6.38;;;23.30;59.00;;;;;;4958697;28;20054;-46
2022/08/05 05:31:14;;;;;;;10.40;6.60;;;23.30;59.10;;;;;;4959062;28;20066;-44
2022/08/05 05:33:42;;;;;;;13.13;7.18;;;23.30;59.20;;;;;;4961348;28;20058;-46
2022/08/05 05:36:10;;;;;;;11.73;7.30;;;23.30;59.20;;;;;;4961553;28;20054;-44
2022/08/05 05:38:38;;;;;;;10.00;7.38;;;23.30;59.30;;;;;;4958572;28;20059;-47
2022/08/05 05:41:05;;;;;;;16.00;9.10;;;23.30;59.30;;;;;;4960808;28;20065;-43
2022/08/05 05:43:32;;;;;;;14.00;8.23;;;23.30;59.30;;;;;;4962017;28;20503;-45
2022/08/05 05:45:59;;;;;;;13.15;8.15;;;23.30;59.30;;;;;;4961201;28;20495;-45
2022/08/05 05:48:27;;;;;;;9.90;7.43;;;23.30;59.40;;;;;;4959162;28;20062;-45
2022/08/05 05:50:54;;;;;;;9.95;7.45;;;23.30;59.40;;;;;;4960905;28;20059;-46
2022/08/05 05:53:22;;;;;;;11.50;9.60;;;23.30;59.40;;;;;;4961818;28;20058;-44
2022/08/05 05:55:50;;;;;;;13.80;9.23;;;23.40;59.60;;;;;;4960130;28;20418;-46
2022/08/05 05:58:17;;;;;;;15.80;8.02;;;23.40;59.70;;;;;;4961849;28;20054;-45
2022/08/05 06:00:44;;;;;;;12.63;8.48;;;23.40;59.70;;;;;;4952006;28;20059;-45
2022/08/05 06:03:11;;;;;;;14.57;8.40;;;23.40;59.70;;;;;;4957343;28;20054;-45
2022/08/05 06:05:38;;;;;;;16.15;10.90;;;23.40;59.70;;;;;;4962746;28;20046;-46
2022/08/05 06:08:05;;;;;;;20.05;11.65;;;23.40;59.90;;;;;;4960754;28;20074;-46
2022/08/05 06:10:34;;;;;;;19.70;11.98;;;23.40;60.30;;;;;;4957883;28;20070;-47
2022/08/05 06:13:01;;;;;;;12.00;9.77;;;23.40;60.30;;;;;;4963455;28;20066;-45
2022/08/05 06:15:28;;;;;;;17.38;12.68;;;23.40;60.00;;;;;;4962017;28;20491;-43
2022/08/05 06:17:56;;;;;;;16.55;12.98;;;23.40;60.00;;;;;;4964080;28;20065;-44
2022/08/05 06:20:23;;;;;;;23.23;15.60;;;23.40;60.10;;;;;;4960859;28;20062;-43
2022/08/05 06:22:50;;;;;;;18.02;12.77;;;23.40;60.30;;;;;;4961972;28;20630;-46
2022/08/05 06:25:17;;;;;;;23.67;17.90;;;23.40;60.30;;;;;;4962034;28;20537;-47
2022/08/05 06:27:46;;;;;;;18.80;13.57;;;23.40;60.20;;;;;;4961522;28;21256;-43
2022/08/05 06:30:14;;;;;;;25.73;17.20;;;23.30;60.50;;;;;;4954817;28;20051;-45
2022/08/05 06:32:42;;;;;;;27.23;20.27;;;23.30;60.80;;;;;;4962520;28;20565;-46
2022/08/05 06:35:09;;;;;;;24.40;18.38;;;23.30;61.20;;;;;;4963184;28;20058;-45
2022/08/05 06:37:36;;;;;;;21.75;17.50;;;23.30;61.40;;;;;;4960957;28;20491;-45
2022/08/05 06:40:05;;;;;;;29.17;20.23;;;23.20;61.60;;;;;;4960559;28;20069;-45
2022/08/05 06:42:32;;;;;;;28.08;22.92;;;23.20;61.90;;;;;;4961940;28;20066;-43
2022/08/05 06:45:01;;;;;;;26.75;21.38;;;23.20;62.00;;;;;;4963221;28;20055;-45
2022/08/05 06:47:28;;;;;;;26.17;22.13;;;23.30;62.10;;;;;;4964682;28;20506;-43
2022/08/05 06:49:55;;;;;;;28.10;21.95;;;23.30;62.00;;;;;;4964209;28;20055;-44
2022/08/05 06:52:22;;;;;;;32.63;24.65;;;23.30;62.00;;;;;;4965080;28;20080;-45
2022/08/05 06:54:49;;;;;;;37.33;28.20;;;23.40;62.20;;;;;;4966171;28;20062;-43
2022/08/05 06:57:17;;;;;;;36.80;27.58;;;23.40;61.70;;;;;;4962777;28;20510;-44
2022/08/05 06:59:44;;;;;;;37.55;29.27;;;23.50;61.70;;;;;;4964468;28;20061;-47
2022/08/05 07:02:12;;;;;;;32.10;25.20;;;23.50;61.80;;;;;;4966178;28;20065;-47
2022/08/05 07:04:40;;;;;;;37.38;26.45;;;23.50;61.60;;;;;;4965374;28;20510;-48
2022/08/05 07:07:07;;;;;;;42.17;30.70;;;23.60;61.40;;;;;;4964892;28;20051;-47
2022/08/05 07:09:34;;;;;;;32.63;26.48;;;23.60;61.40;;;;;;4960895;28;20059;-48
2022/08/05 07:12:01;;;;;;;31.83;25.23;;;23.60;61.50;;;;;;4965790;28;20399;-44
2022/08/05 07:17:23;;;;;;;35.17;27.80;;;23.50;61.30;;;;;;4909660;28;20055;-44
2022/08/05 07:19:52;;;;;;;42.30;30.52;;;23.50;61.40;;;;;;4962627;28;21349;-48
2022/08/05 07:22:21;;;;;;;46.92;33.60;;;23.50;61.60;;;;;;4962425;28;20055;-44
2022/08/05 07:24:48;;;;;;;46.72;34.22;;;23.50;61.80;;;;;;4962407;28;20058;-44
2022/08/05 07:27:15;;;;;;;50.33;36.15;;;23.40;62.00;;;;;;4958059;28;20074;-49
2022/08/05 07:29:43;;;;;;;34.17;27.55;;;23.40;62.30;;;;;;4961460;28;20058;-50
2022/08/05 07:32:11;;;;;;;46.22;33.97;;;23.30;62.30;;;;;;4964804;28;20059;-45
2022/08/05 07:34:39;;;;;;;45.50;32.17;;;23.30;63.00;;;;;;4963766;28;20055;-46
2022/08/05 07:37:06;;;;;;;43.80;32.13;;;23.20;63.10;;;;;;4964275;28;20054;-45
2022/08/05 07:39:34;;;;;;;37.80;30.45;;;23.20;63.40;;;;;;4963447;28;20487;-45
2022/08/05 07:42:01;;;;;;;51.38;38.20;;;23.10;63.80;;;;;;4957586;28;20062;-45
2022/08/05 07:44:28;;;;;;;49.65;34.67;;;23.10;63.80;;;;;;4962890;28;20066;-46
2022/08/05 07:46:55;;;;;;;52.20;36.60;;;23.10;63.70;;;;;;4962341;28;20490;-44
2022/08/05 07:49:22;;;;;;;51.33;36.38;;;23.00;64.00;;;;;;4959908;28;20495;-46
2022/08/05 07:51:51;;;;;;;55.30;39.92;;;23.00;64.00;;;;;;4964029;28;20062;-48
2022/08/05 07:54:20;;;;;;;52.75;38.80;;;23.00;63.90;;;;;;4964117;28;20058;-44
2022/08/05 07:56:47;;;;;;;44.75;34.90;;;22.90;63.80;;;;;;4964039;28;20047;-47
2022/08/05 07:59:15;;;;;;;41.80;32.97;;;23.00;64.00;;;;;;4960154;28;20051;-48
2022/08/05 08:01:42;;;;;;;43.92;33.50;;;22.90;63.80;;;;;;4961341;28;20521;-45
2022/08/05 08:04:09;;;;;;;47.70;36.30;;;22.90;63.70;;;;;;4961673;28;20499;-47
2022/08/05 08:06:36;;;;;;;51.95;37.40;;;22.90;63.80;;;;;;4964024;28;20053;-45
2022/08/05 08:09:05;;;;;;;60.80;38.45;;;22.90;63.90;;;;;;4961853;28;20422;-44
2022/08/05 08:11:32;;;;;;;47.20;35.85;;;23.00;64.10;;;;;;4962042;28;20050;-43
2022/08/05 08:13:59;;;;;;;56.00;39.10;;;23.00;64.00;;;;;;4963470;28;20051;-44
2022/08/05 08:16:26;;;;;;;55.95;39.00;;;23.00;64.10;;;;;;4963710;28;20406;-47
2022/08/05 08:18:53;;;;;;;49.40;37.10;;;23.00;63.90;;;;;;4965105;28;20517;-46
2022/08/05 08:21:21;;;;;;;40.28;31.50;;;23.00;63.60;;;;;;4958759;28;20482;-45
2022/08/05 08:23:48;;;;;;;38.97;31.20;;;23.00;63.60;;;;;;4964462;28;20066;-45
2022/08/05 08:26:16;;;;;;;39.40;32.13;;;23.00;63.60;;;;;;4961153;28;20499;-45
2022/08/05 08:28:44;;;;;;;34.67;27.58;;;23.00;63.30;;;;;;4961902;28;20047;-44
2022/08/05 08:31:11;;;;;;;36.00;28.90;;;23.00;63.20;;;;;;4958658;28;20396;-43
2022/08/05 08:33:38;;;;;;;29.17;23.77;;;23.00;63.50;;;;;;4965409;28;20051;-43
2022/08/05 08:36:07;;;;;;;32.53;25.27;;;23.10;63.70;;;;;;4964239;28;20050;-44
2022/08/05 08:38:34;;;;;;;32.92;26.10;;;23.10;63.80;;;;;;4963293;28;20058;-46
2022/08/05 08:41:05;;;;;;;28.90;24.60;;;23.10;63.80;;;;;;4960164;28;20058;-48
2022/08/05 08:43:35;;;;;;;31.98;25.83;;;23.20;63.80;;;;;;4959225;28;20062;-46
2022/08/05 08:46:04;;;;;;;29.88;24.92;;;23.20;63.50;;;;;;4961699;28;20533;-45
2022/08/05 08:48:32;;;;;;;33.80;24.75;;;23.30;63.80;;;;;;4961819;28;20418;-44
2022/08/05 08:51:00;;;;;;;32.58;24.77;;;23.30;63.50;;;;;;4962401;28;20063;-46
2022/08/05 08:56:49;;;;;;;31.98;24.73;;;23.40;63.50;;;;;;4965054;28;20406;-43
2022/08/05 08:59:19;;;;;;;28.15;22.25;;;23.50;63.30;;;;;;4959238;28;20046;-46
2022/08/05 09:01:47;;;;;;;29.02;21.20;;;23.60;63.30;;;;;;4961878;28;20054;-44
2022/08/05 09:04:15;;;;;;;26.58;20.17;;;23.60;63.10;;;;;;4963274;28;20065;-46
2022/08/05 09:06:42;;;;;;;30.65;22.20;;;23.70;62.40;;;;;;4963769;28;20518;-43
2022/08/05 09:09:09;;;;;;;35.20;24.98;;;23.80;61.70;;;;;;4960186;28;20418;-47
2022/08/05 09:11:37;;;;;;;35.50;24.23;;;23.80;60.40;;;;;;4962643;28;20059;-44
2022/08/05 09:14:04;;;;;;;34.17;24.45;;;23.80;60.50;;;;;;4960437;28;20055;-45
2022/08/05 09:16:33;;;;;;;32.33;23.63;;;23.80;60.90;;;;;;4962524;28;20548;-47
2022/08/05 09:19:00;;;;;;;33.65;24.67;;;23.80;61.40;;;;;;4960992;28;20062;-44
2022/08/05 09:21:28;;;;;;;33.70;24.65;;;23.70;61.40;;;;;;4960841;28;20610;-45
2022/08/05 09:24:07;;;;;;;33.83;25.08;;;23.70;60.70;;;;;;4961376;28;20062;-47
2022/08/05 09:26:35;;;;;;;36.00;26.00;;;23.70;60.60;;;;;;4961713;28;20059;-44
2022/08/05 09:29:05;;;;;;;38.55;27.35;;;23.70;61.10;;;;;;4957949;28;20510;-46
2022/08/05 09:31:34;;;;;;;36.45;25.98;;;23.60;60.80;;;;;;4960958;28;20502;-56
2022/08/05 09:34:04;;;;;;;35.22;24.50;;;23.70;61.20;;;;;;4960625;28;20073;-44
2022/08/05 09:36:43;;;;;;;43.95;30.30;;;23.70;61.20;;;;;;4962446;28;20050;-44
2022/08/05 09:39:12;;;;;;;43.88;29.92;;;23.70;61.00;;;;;;4958798;28;20082;-47
2022/08/05 09:41:56;;;;;;;46.13;31.30;;;23.80;61.40;;;;;;4961252;28;20050;-49
2022/08/05 09:44:33;;;;;;;;;;;23.80;60.40;;;;;;4961842;28;20055;-51
2022/08/05 09:47:10;;;;;;;49.63;34.15;;;23.90;59.80;;;;;;4964092;28;19926;-44
2022/08/05 09:49:42;;;;;;;51.42;34.45;;;23.90;59.50;;;;;;4964068;28;20065;-47
2022/08/05 09:52:20;;;;;;;47.25;33.08;;;23.90;59.80;;;;;;4963447;28;20431;-44
2022/08/05 09:55:03;;;;;;;46.05;32.45;;;24.00;60.50;;;;;;4961875;28;20563;-47
2022/08/05 09:57:33;;;;;;;49.05;31.92;;;24.00;60.70;;;;;;4962244;28;20054;-47
2022/08/05 10:00:02;;;;;;;47.45;35.20;;;24.10;59.80;;;;;;4962869;28;20058;-49
2022/08/05 10:02:35;;;;;;;47.67;33.65;;;24.10;59.50;;;;;;4963059;28;20499;-51
2022/08/05 10:05:08;;;;;;;46.40;32.55;;;24.10;58.90;;;;;;4962773;28;20576;-49
2022/08/05 10:07:49;;;;;;;41.90;30.17;;;24.10;58.60;;;;;;4961815;28;20047;-44
2022/08/05 10:10:18;;;;;;;37.47;27.40;;;24.00;58.60;;;;;;4964397;28;20058;-44
2022/08/05 10:12:47;;;;;;;41.75;29.63;;;24.00;58.30;;;;;;4961046;28;20063;-45
2022/08/05 10:15:22;;;;;;;41.03;30.42;;;24.10;58.60;;;;;;4962130;28;20510;-48
2022/08/05 10:18:07;;;;;;;39.88;28.27;;;24.00;58.20;;;;;;4963471;28;20082;-45
2022/08/05 10:20:37;;;;;;;37.33;26.27;;;23.90;57.60;;;;;;4962951;28;20062;-43
2022/08/05 10:23:05;;;;;;;43.25;31.42;;;23.90;57.70;;;;;;4965272;28;20055;-42
2022/08/05 10:25:32;;;;;;;36.78;27.88;;;23.80;57.60;;;;;;4967226;28;20263;-43
2022/08/05 10:28:00;;;;;;;41.97;30.48;;;23.80;57.80;;;;;;4966527;28;20055;-47
2022/08/05 10:30:28;;;;;;;41.83;31.30;;;23.70;57.80;;;;;;4967052;28;20065;-46
2022/08/05 10:32:57;;;;;;;41.90;31.58;;;23.70;58.30;;;;;;4966836;28;20058;-44
2022/08/05 10:35:26;;;;;;;38.65;29.58;;;23.60;58.10;;;;;;4966987;28;20059;-44
2022/08/05 10:37:54;;;;;;;31.08;25.92;;;23.60;58.10;;;;;;4966991;28;20499;-42
2022/08/05 10:40:29;;;;;;;38.53;29.38;;;23.60;58.20;;;;;;4964920;28;20065;-45
2022/08/05 10:43:09;;;;;;;35.47;29.92;;;23.60;58.10;;;;;;4960635;28;20101;-45
2022/08/05 10:45:36;;;;;;;39.28;32.47;;;23.60;58.40;;;;;;4965421;28;20055;-47
2022/08/05 10:48:31;;;;;;;43.67;33.83;;;23.50;58.00;;;;;;4965818;28;20073;-48
2022/08/05 10:51:02;;;;;;;41.78;32.33;;;23.40;58.20;;;;;;4947582;28;20058;-46
2022/08/05 10:53:38;;;;;;;45.08;33.78;;;23.30;58.30;;;;;;4966406;28;20051;-46
2022/08/05 10:56:07;;;;;;;45.95;33.53;;;23.30;58.70;;;;;;4966633;28;20510;-44
2022/08/05 10:58:35;;;;;;;46.40;32.72;;;23.20;58.80;;;;;;4965943;28;20051;-47
2022/08/05 11:01:05;;;;;;;42.72;30.95;;;23.10;58.40;;;;;;4965472;28;20078;-49
2022/08/05 11:03:33;;;;;;;42.95;30.13;;;23.00;58.40;;;;;;4966583;28;20079;-45
2022/08/05 11:06:10;;;;;;;46.88;30.40;;;23.00;58.60;;;;;;4965167;28;20073;-49
2022/08/05 11:08:37;;;;;;;45.47;32.72;;;22.80;58.80;;;;;;4963970;28;20050;-43
2022/08/05 11:11:33;;;;;;;41.28;32.45;;;22.70;58.90;;;;;;4965584;28;20067;-47
2022/08/05 11:14:02;;;;;;;42.50;32.75;;;22.50;59.20;;;;;;4964523;28;20301;-46
2022/08/05 11:16:31;;;;;;;48.20;34.72;;;22.50;59.30;;;;;;4965404;28;20047;-44
2022/08/05 11:19:27;;;;;;;38.25;29.83;;;22.30;59.30;;;;;;4966094;28;20054;-45
2022/08/05 11:21:56;;;;;;;34.50;24.35;;;22.20;59.80;;;;;;4964530;28;20055;-48
2022/08/05 11:24:23;;;;;;;27.50;20.90;;;22.10;60.10;;;;;;4965051;28;20070;-45
2022/08/05 11:27:29;;;;;;;27.88;19.15;;;22.00;60.50;;;;;;4966117;28;20070;-44
2022/08/05 11:30:00;;;;;;;21.13;15.77;;;21.80;61.20;;;;;;4960664;28;20050;-48
2022/08/05 11:32:29;;;;;;;22.48;15.80;;;21.70;61.50;;;;;;4964650;28;20065;-48
2022/08/05 11:34:59;;;;;;;23.38;15.68;;;21.70;62.10;;;;;;4966095;28;20046;-44
2022/08/05 11:37:58;;;;;;;17.90;12.10;;;21.60;62.60;;;;;;4965270;28;20553;-45
2022/08/05 11:41:04;;;;;;;15.30;10.50;;;21.50;63.80;;;;;;4964453;28;20051;-47
2022/08/05 11:43:31;;;;;;;19.50;9.88;;;21.40;63.50;;;;;;4944826;28;20495;-52
2022/08/05 11:45:59;;;;;;;11.73;7.65;;;21.40;63.40;;;;;;4965271;28;20055;-46
2022/08/05 11:48:27;;;;;;;8.45;7.10;;;21.30;63.70;;;;;;4965090;28;20053;-49
2022/08/05 11:50:55;;;;;;;7.75;5.25;;;21.20;64.10;;;;;;4964524;28;20078;-44
2022/08/05 11:53:24;;;;;;;7.72;5.15;;;21.10;64.20;;;;;;4965285;28;20055;-49
2022/08/05 11:55:55;;;;;;;6.63;5.43;;;21.00;64.20;;;;;;4965577;28;20483;-50
2022/08/05 11:58:29;;;;;;;5.30;4.38;;;20.90;64.60;;;;;;4964528;28;20065;-53
2022/08/05 12:01:03;;;;;;;4.53;3.20;;;20.80;64.90;;;;;;4964438;28;20065;-45
2022/08/05 12:03:40;;;;;;;;;;;20.80;64.60;;;;;;4965400;28;20074;-49
2022/08/05 12:06:07;;;;;;;5.47;1.92;;;20.80;63.80;;;;;;4965371;28;19926;-49
2022/08/05 12:08:40;;;;;;;4.93;2.20;;;20.70;62.50;;;;;;4962988;28;20549;-47
2022/08/05 12:11:09;;;;;;;7.10;2.00;;;20.60;62.10;;;;;;4962530;28;20051;-49
2022/08/05 12:13:38;;;;;;;9.23;2.72;;;20.60;62.30;;;;;;4963935;28;20063;-52
2022/08/05 12:16:09;;;;;;;6.93;2.58;;;20.60;61.80;;;;;;4965487;28;20054;-49
2022/08/05 12:18:38;;;;;;;12.98;2.83;;;20.50;61.80;;;;;;4964348;28;20053;-57
2022/08/05 12:21:13;;;;;;;7.70;2.40;;;20.60;62.00;;;;;;4962276;28;20058;-48
2022/08/05 12:23:51;;;;;;;10.02;2.63;;;20.60;62.20;;;;;;4963981;28;20422;-51
2022/08/05 12:26:19;;;;;;;6.15;2.42;;;20.70;62.00;;;;;;4964790;28;20066;-45
2022/08/05 12:28:46;;;;;;;5.55;2.35;;;20.70;60.80;;;;;;4961880;28;20050;-47
2022/08/05 12:31:13;;;;;;;4.20;2.45;;;20.80;60.20;;;;;;4963238;28;20061;-51
2022/08/05 12:33:41;;;;;;;3.08;1.95;;;20.90;59.10;;;;;;4965151;28;20061;-47
2022/08/05 12:36:09;;;;;;;5.82;2.25;;;21.00;59.40;;;;;;4965242;28;20055;-52
2022/08/05 12:38:37;;;;;;;5.53;2.17;;;21.10;59.40;;;;;;4963137;28;20047;-49
2022/08/05 12:41:09;;;;;;;5.70;2.40;;;21.20;59.30;;;;;;4964122;28;20054;-55
2022/08/05 12:43:49;;;;;;;7.00;2.45;;;21.30;58.80;;;;;;4962884;28;21102;-47
2022/08/05 12:46:23;;;;;;;5.38;2.40;;;21.40;58.10;;;;;;4964722;28;20050;-48
2022/08/05 12:49:02;;;;;;;5.30;2.42;;;21.50;58.10;;;;;;4963565;28;20054;-44
2022/08/05 12:51:31;;;;;;;7.25;2.35;;;21.70;57.70;;;;;;4963103;28;20058;-51
2022/08/05 12:54:00;;;;;;;5.28;2.40;;;21.80;56.90;;;;;;4963565;28;20530;-45
2022/08/05 12:56:30;;;;;;;6.45;1.70;;;21.90;56.10;;;;;;4963421;28;20062;-45